sensor_id;sensor_type;location;lat;lon;timestamp;P1;durP1;ratioP1;P2;durP2;ratioP2
10383;SDS011;5238;43.508;4.980;2023-07-24T00:01:59;9.23;;;5.40;;
10383;SDS011;5238;43.508;4.980;2023-07-24T00:04:26;6.43;;;5.03;;
10383;SDS011;5238;43.508;4.980;2023-07-24T00:06:53;6.43;;;4.82;;
10383;SDS011;5238;43.508;4.980;2023-07-24T00:09:20;7.40;;;4.93;;
10383;SDS011;5238;43.508;4.980;2023-07-24T00:11:47;5.53;;;4.60;;
10383;SDS011;5238;43.508;4.980;2023-07-24T00:14:14;7.10;;;5.22;;
10383;SDS011;5238;43.508;4.980;2023-07-24T00:16:41;6.10;;;5.15;;
10383;SDS011;5238;43.508;4.980;2023-07-24T00:19:09;5.10;;;4.60;;
10383;SDS011;5238;43.508;4.980;2023-07-24T00:21:36;5.88;;;4.75;;
10383;SDS011;5238;43.508;4.980;2023-07-24T00:24:03;6.38;;;4.38;;
10383;SDS011;5238;43.508;4.980;2023-07-24T00:26:31;5.82;;;5.18;;
10383;SDS011;5238;43.508;4.980;2023-07-24T00:28:58;5.05;;;4.20;;
10383;SDS011;5238;43.508;4.980;2023-07-24T00:31:25;6.43;;;5.10;;
10383;SDS011;5238;43.508;4.980;2023-07-24T00:33:52;6.25;;;4.57;;
10383;SDS011;5238;43.508;4.980;2023-07-24T00:36:21;6.85;;;4.40;;
10383;SDS011;5238;43.508;4.980;2023-07-24T00:38:47;6.78;;;4.65;;
10383;SDS011;5238;43.508;4.980;2023-07-24T00:41:14;5.65;;;5.13;;
10383;SDS011;5238;43.508;4.980;2023-07-24T00:43:41;5.03;;;4.60;;
10383;SDS011;5238;43.508;4.980;2023-07-24T00:46:08;5.20;;;4.68;;
10383;SDS011;5238;43.508;4.980;2023-07-24T00:48:36;5.57;;;4.45;;
10383;SDS011;5238;43.508;4.980;2023-07-24T00:51:04;5.60;;;4.50;;
10383;SDS011;5238;43.508;4.980;2023-07-24T00:53:33;6.07;;;4.63;;
10383;SDS011;5238;43.508;4.980;2023-07-24T00:56:00;6.15;;;5.10;;
10383;SDS011;5238;43.508;4.980;2023-07-24T00:58:27;5.30;;;4.80;;
10383;SDS011;5238;43.508;4.980;2023-07-24T01:00:54;5.28;;;4.70;;
10383;SDS011;5238;43.508;4.980;2023-07-24T01:03:22;7.38;;;4.53;;
10383;SDS011;5238;43.508;4.980;2023-07-24T01:05:56;8.05;;;4.65;;
10383;SDS011;5238;43.508;4.980;2023-07-24T01:08:23;7.00;;;4.97;;
10383;SDS011;5238;43.508;4.980;2023-07-24T01:10:52;6.07;;;4.40;;
10383;SDS011;5238;43.508;4.980;2023-07-24T01:13:19;5.82;;;5.22;;
10383;SDS011;5238;43.508;4.980;2023-07-24T01:15:54;6.10;;;4.85;;
10383;SDS011;5238;43.508;4.980;2023-07-24T01:18:26;5.28;;;4.47;;
10383;SDS011;5238;43.508;4.980;2023-07-24T01:20:56;5.88;;;4.65;;
10383;SDS011;5238;43.508;4.980;2023-07-24T01:23:30;6.88;;;4.88;;
10383;SDS011;5238;43.508;4.980;2023-07-24T01:26:08;7.35;;;4.75;;
10383;SDS011;5238;43.508;4.980;2023-07-24T01:28:37;6.05;;;4.95;;
10383;SDS011;5238;43.508;4.980;2023-07-24T01:31:04;5.97;;;4.75;;
10383;SDS011;5238;43.508;4.980;2023-07-24T01:33:31;7.47;;;4.72;;
10383;SDS011;5238;43.508;4.980;2023-07-24T01:36:00;5.40;;;4.68;;
10383;SDS011;5238;43.508;4.980;2023-07-24T01:38:28;5.68;;;5.13;;
10383;SDS011;5238;43.508;4.980;2023-07-24T01:40:58;6.07;;;4.55;;
10383;SDS011;5238;43.508;4.980;2023-07-24T01:43:30;6.18;;;4.75;;
10383;SDS011;5238;43.508;4.980;2023-07-24T01:45:58;5.75;;;4.50;;
10383;SDS011;5238;43.508;4.980;2023-07-24T01:48:24;5.55;;;4.93;;
10383;SDS011;5238;43.508;4.980;2023-07-24T01:50:51;4.78;;;4.22;;
10383;SDS011;5238;43.508;4.980;2023-07-24T01:53:18;6.32;;;4.53;;
10383;SDS011;5238;43.508;4.980;2023-07-24T01:55:45;5.93;;;5.30;;
10383;SDS011;5238;43.508;4.980;2023-07-24T01:58:12;5.32;;;4.72;;
10383;SDS011;5238;43.508;4.980;2023-07-24T02:00:40;4.93;;;4.45;;
10383;SDS011;5238;43.508;4.980;2023-07-24T02:03:07;5.00;;;4.60;;
10383;SDS011;5238;43.508;4.980;2023-07-24T02:05:34;6.10;;;5.00;;
10383;SDS011;5238;43.508;4.980;2023-07-24T02:08:01;7.32;;;4.85;;
10383;SDS011;5238;43.508;4.980;2023-07-24T02:10:28;8.05;;;4.85;;
10383;SDS011;5238;43.508;4.980;2023-07-24T02:12:55;5.47;;;4.68;;
10383;SDS011;5238;43.508;4.980;2023-07-24T02:15:22;5.55;;;4.68;;
10383;SDS011;5238;43.508;4.980;2023-07-24T02:17:50;6.75;;;5.70;;
10383;SDS011;5238;43.508;4.980;2023-07-24T02:20:17;5.95;;;4.88;;
10383;SDS011;5238;43.508;4.980;2023-07-24T02:22:44;5.60;;;5.03;;
10383;SDS011;5238;43.508;4.980;2023-07-24T02:25:11;7.53;;;5.28;;
10383;SDS011;5238;43.508;4.980;2023-07-24T02:27:38;5.72;;;5.22;;
10383;SDS011;5238;43.508;4.980;2023-07-24T02:30:05;7.35;;;5.38;;
10383;SDS011;5238;43.508;4.980;2023-07-24T02:32:32;6.38;;;5.35;;
10383;SDS011;5238;43.508;4.980;2023-07-24T02:35:01;6.32;;;5.65;;
10383;SDS011;5238;43.508;4.980;2023-07-24T02:37:28;6.10;;;5.38;;
10383;SDS011;5238;43.508;4.980;2023-07-24T02:39:55;5.65;;;5.07;;
10383;SDS011;5238;43.508;4.980;2023-07-24T02:42:21;6.93;;;6.22;;
10383;SDS011;5238;43.508;4.980;2023-07-24T02:44:48;7.35;;;5.45;;
10383;SDS011;5238;43.508;4.980;2023-07-24T02:47:15;6.68;;;5.97;;
10383;SDS011;5238;43.508;4.980;2023-07-24T02:49:42;7.22;;;5.50;;
10383;SDS011;5238;43.508;4.980;2023-07-24T02:52:11;5.72;;;5.13;;
10383;SDS011;5238;43.508;4.980;2023-07-24T02:54:37;6.47;;;5.60;;
10383;SDS011;5238;43.508;4.980;2023-07-24T02:57:05;8.23;;;5.82;;
10383;SDS011;5238;43.508;4.980;2023-07-24T02:59:32;6.82;;;5.75;;
10383;SDS011;5238;43.508;4.980;2023-07-24T03:02:00;6.35;;;5.60;;
10383;SDS011;5238;43.508;4.980;2023-07-24T03:04:27;6.85;;;5.85;;
10383;SDS011;5238;43.508;4.980;2023-07-24T03:06:54;6.13;;;5.50;;
10383;SDS011;5238;43.508;4.980;2023-07-24T03:09:22;6.60;;;5.75;;
10383;SDS011;5238;43.508;4.980;2023-07-24T03:11:49;6.80;;;5.60;;
10383;SDS011;5238;43.508;4.980;2023-07-24T03:14:16;8.07;;;5.88;;
10383;SDS011;5238;43.508;4.980;2023-07-24T03:16:43;6.72;;;6.03;;
10383;SDS011;5238;43.508;4.980;2023-07-24T03:19:09;8.10;;;5.05;;
10383;SDS011;5238;43.508;4.980;2023-07-24T03:21:36;6.55;;;5.57;;
10383;SDS011;5238;43.508;4.980;2023-07-24T03:24:04;9.30;;;5.43;;
10383;SDS011;5238;43.508;4.980;2023-07-24T03:26:32;8.63;;;5.97;;
10383;SDS011;5238;43.508;4.980;2023-07-24T03:28:59;6.57;;;5.32;;
10383;SDS011;5238;43.508;4.980;2023-07-24T03:31:27;6.10;;;5.50;;
10383;SDS011;5238;43.508;4.980;2023-07-24T03:33:53;6.50;;;5.50;;
10383;SDS011;5238;43.508;4.980;2023-07-24T03:36:20;7.25;;;5.75;;
10383;SDS011;5238;43.508;4.980;2023-07-24T03:38:47;6.80;;;5.35;;
10383;SDS011;5238;43.508;4.980;2023-07-24T03:41:14;7.82;;;5.90;;
10383;SDS011;5238;43.508;4.980;2023-07-24T03:43:42;10.32;;;5.80;;
10383;SDS011;5238;43.508;4.980;2023-07-24T03:46:09;5.93;;;5.22;;
10383;SDS011;5238;43.508;4.980;2023-07-24T03:48:36;7.82;;;5.28;;
10383;SDS011;5238;43.508;4.980;2023-07-24T03:51:03;6.93;;;6.28;;
10383;SDS011;5238;43.508;4.980;2023-07-24T03:53:30;7.78;;;6.05;;
10383;SDS011;5238;43.508;4.980;2023-07-24T03:55:57;6.35;;;5.68;;
10383;SDS011;5238;43.508;4.980;2023-07-24T03:58:24;6.82;;;6.05;;
10383;SDS011;5238;43.508;4.980;2023-07-24T04:00:52;6.70;;;6.00;;
10383;SDS011;5238;43.508;4.980;2023-07-24T04:03:19;6.22;;;5.63;;
10383;SDS011;5238;43.508;4.980;2023-07-24T04:05:46;7.70;;;5.40;;
10383;SDS011;5238;43.508;4.980;2023-07-24T04:08:13;6.20;;;5.60;;
10383;SDS011;5238;43.508;4.980;2023-07-24T04:10:40;8.02;;;5.72;;
10383;SDS011;5238;43.508;4.980;2023-07-24T04:13:07;7.85;;;6.15;;
10383;SDS011;5238;43.508;4.980;2023-07-24T04:15:34;8.80;;;6.25;;
10383;SDS011;5238;43.508;4.980;2023-07-24T04:18:03;7.78;;;6.07;;
10383;SDS011;5238;43.508;4.980;2023-07-24T04:20:29;9.68;;;5.63;;
10383;SDS011;5238;43.508;4.980;2023-07-24T04:22:56;7.88;;;6.07;;
10383;SDS011;5238;43.508;4.980;2023-07-24T04:25:23;10.50;;;6.10;;
10383;SDS011;5238;43.508;4.980;2023-07-24T04:27:50;7.30;;;5.57;;
10383;SDS011;5238;43.508;4.980;2023-07-24T04:30:17;9.20;;;6.05;;
10383;SDS011;5238;43.508;4.980;2023-07-24T04:32:44;6.90;;;6.20;;
10383;SDS011;5238;43.508;4.980;2023-07-24T04:35:12;7.30;;;5.43;;
10383;SDS011;5238;43.508;4.980;2023-07-24T04:37:39;8.73;;;5.47;;
10383;SDS011;5238;43.508;4.980;2023-07-24T04:40:07;7.90;;;5.45;;
10383;SDS011;5238;43.508;4.980;2023-07-24T04:42:35;7.38;;;5.30;;
10383;SDS011;5238;43.508;4.980;2023-07-24T04:45:02;7.60;;;5.55;;
10383;SDS011;5238;43.508;4.980;2023-07-24T04:47:29;8.20;;;5.15;;
10383;SDS011;5238;43.508;4.980;2023-07-24T04:49:56;8.80;;;5.50;;
10383;SDS011;5238;43.508;4.980;2023-07-24T04:52:25;9.45;;;5.82;;
10383;SDS011;5238;43.508;4.980;2023-07-24T04:54:52;10.60;;;5.72;;
10383;SDS011;5238;43.508;4.980;2023-07-24T04:57:18;10.25;;;5.82;;
10383;SDS011;5238;43.508;4.980;2023-07-24T04:59:45;7.78;;;5.75;;
10383;SDS011;5238;43.508;4.980;2023-07-24T05:02:12;9.15;;;5.72;;
10383;SDS011;5238;43.508;4.980;2023-07-24T05:04:39;13.32;;;5.68;;
10383;SDS011;5238;43.508;4.980;2023-07-24T05:07:07;8.20;;;6.05;;
10383;SDS011;5238;43.508;4.980;2023-07-24T05:09:35;6.75;;;5.68;;
10383;SDS011;5238;43.508;4.980;2023-07-24T05:12:02;9.15;;;5.50;;
10383;SDS011;5238;43.508;4.980;2023-07-24T05:14:30;9.95;;;5.18;;
10383;SDS011;5238;43.508;4.980;2023-07-24T05:16:56;9.95;;;5.18;;
10383;SDS011;5238;43.508;4.980;2023-07-24T05:19:23;8.80;;;4.93;;
10383;SDS011;5238;43.508;4.980;2023-07-24T05:21:50;7.07;;;4.53;;
10383;SDS011;5238;43.508;4.980;2023-07-24T05:24:17;9.40;;;5.20;;
10383;SDS011;5238;43.508;4.980;2023-07-24T05:26:45;9.80;;;5.00;;
10383;SDS011;5238;43.508;4.980;2023-07-24T05:29:12;8.82;;;5.20;;
10383;SDS011;5238;43.508;4.980;2023-07-24T05:31:39;7.13;;;5.75;;
10383;SDS011;5238;43.508;4.980;2023-07-24T05:34:06;10.90;;;5.70;;
10383;SDS011;5238;43.508;4.980;2023-07-24T05:36:33;6.53;;;4.65;;
10383;SDS011;5238;43.508;4.980;2023-07-24T05:39:00;7.80;;;5.82;;
10383;SDS011;5238;43.508;4.980;2023-07-24T05:41:27;10.40;;;4.90;;
10383;SDS011;5238;43.508;4.980;2023-07-24T05:43:55;7.65;;;5.00;;
10383;SDS011;5238;43.508;4.980;2023-07-24T05:46:22;10.10;;;5.30;;
10383;SDS011;5238;43.508;4.980;2023-07-24T05:48:49;6.28;;;4.88;;
10383;SDS011;5238;43.508;4.980;2023-07-24T05:51:16;6.75;;;5.65;;
10383;SDS011;5238;43.508;4.980;2023-07-24T05:53:43;7.50;;;5.38;;
10383;SDS011;5238;43.508;4.980;2023-07-24T05:56:09;9.00;;;5.10;;
10383;SDS011;5238;43.508;4.980;2023-07-24T05:58:36;7.63;;;5.30;;
10383;SDS011;5238;43.508;4.980;2023-07-24T06:01:05;7.97;;;5.22;;
10383;SDS011;5238;43.508;4.980;2023-07-24T06:03:33;7.95;;;4.60;;
10383;SDS011;5238;43.508;4.980;2023-07-24T06:06:00;5.82;;;4.97;;
10383;SDS011;5238;43.508;4.980;2023-07-24T06:08:27;6.78;;;4.60;;
10383;SDS011;5238;43.508;4.980;2023-07-24T06:10:53;5.38;;;4.82;;
10383;SDS011;5238;43.508;4.980;2023-07-24T06:13:21;7.50;;;5.10;;
10383;SDS011;5238;43.508;4.980;2023-07-24T06:15:48;6.25;;;5.65;;
10383;SDS011;5238;43.508;4.980;2023-07-24T06:18:17;5.45;;;4.95;;
10383;SDS011;5238;43.508;4.980;2023-07-24T06:20:44;5.07;;;4.40;;
10383;SDS011;5238;43.508;4.980;2023-07-24T06:23:11;7.30;;;4.72;;
10383;SDS011;5238;43.508;4.980;2023-07-24T06:25:38;9.98;;;5.10;;
10383;SDS011;5238;43.508;4.980;2023-07-24T06:28:05;7.63;;;4.72;;
10383;SDS011;5238;43.508;4.980;2023-07-24T06:30:32;5.32;;;4.70;;
10383;SDS011;5238;43.508;4.980;2023-07-24T06:32:59;5.60;;;4.57;;
10383;SDS011;5238;43.508;4.980;2023-07-24T06:35:27;7.95;;;4.90;;
10383;SDS011;5238;43.508;4.980;2023-07-24T06:37:54;5.30;;;4.43;;
10383;SDS011;5238;43.508;4.980;2023-07-24T06:40:21;9.75;;;5.00;;
10383;SDS011;5238;43.508;4.980;2023-07-24T06:42:48;7.25;;;4.88;;
10383;SDS011;5238;43.508;4.980;2023-07-24T06:45:15;6.97;;;4.88;;
10383;SDS011;5238;43.508;4.980;2023-07-24T06:47:42;5.72;;;4.50;;
10383;SDS011;5238;43.508;4.980;2023-07-24T06:50:09;6.70;;;4.72;;
10383;SDS011;5238;43.508;4.980;2023-07-24T06:52:37;5.38;;;4.72;;
10383;SDS011;5238;43.508;4.980;2023-07-24T06:55:05;5.97;;;5.20;;
10383;SDS011;5238;43.508;4.980;2023-07-24T06:57:32;9.43;;;5.03;;
10383;SDS011;5238;43.508;4.980;2023-07-24T06:59:59;6.88;;;4.78;;
10383;SDS011;5238;43.508;4.980;2023-07-24T07:02:26;5.90;;;4.57;;
10383;SDS011;5238;43.508;4.980;2023-07-24T07:04:53;7.25;;;5.50;;
10383;SDS011;5238;43.508;4.980;2023-07-24T07:07:20;6.75;;;5.10;;
10383;SDS011;5238;43.508;4.980;2023-07-24T07:09:48;5.93;;;5.32;;
10383;SDS011;5238;43.508;4.980;2023-07-24T07:12:15;6.55;;;5.10;;
10383;SDS011;5238;43.508;4.980;2023-07-24T07:14:42;7.35;;;5.20;;
10383;SDS011;5238;43.508;4.980;2023-07-24T07:17:09;9.30;;;4.97;;
10383;SDS011;5238;43.508;4.980;2023-07-24T07:19:36;7.63;;;5.55;;
10383;SDS011;5238;43.508;4.980;2023-07-24T07:22:03;8.57;;;5.10;;
10383;SDS011;5238;43.508;4.980;2023-07-24T07:24:30;6.82;;;4.85;;
10383;SDS011;5238;43.508;4.980;2023-07-24T07:26:58;8.15;;;4.95;;
10383;SDS011;5238;43.508;4.980;2023-07-24T07:29:25;4.97;;;4.47;;
10383;SDS011;5238;43.508;4.980;2023-07-24T07:31:52;7.00;;;5.53;;
10383;SDS011;5238;43.508;4.980;2023-07-24T07:34:19;5.05;;;4.55;;
10383;SDS011;5238;43.508;4.980;2023-07-24T07:36:46;7.07;;;4.97;;
10383;SDS011;5238;43.508;4.980;2023-07-24T07:39:13;7.80;;;4.90;;
10383;SDS011;5238;43.508;4.980;2023-07-24T07:41:40;6.10;;;5.60;;
10383;SDS011;5238;43.508;4.980;2023-07-24T07:44:08;6.28;;;4.82;;
10383;SDS011;5238;43.508;4.980;2023-07-24T07:46:35;6.03;;;4.88;;
10383;SDS011;5238;43.508;4.980;2023-07-24T07:49:02;5.13;;;4.53;;
10383;SDS011;5238;43.508;4.980;2023-07-24T07:51:29;6.28;;;4.70;;
10383;SDS011;5238;43.508;4.980;2023-07-24T07:53:55;6.50;;;4.53;;
10383;SDS011;5238;43.508;4.980;2023-07-24T07:56:22;4.65;;;4.22;;
10383;SDS011;5238;43.508;4.980;2023-07-24T07:58:49;5.85;;;4.90;;
10383;SDS011;5238;43.508;4.980;2023-07-24T08:01:17;7.85;;;5.18;;
10383;SDS011;5238;43.508;4.980;2023-07-24T08:03:44;6.38;;;5.25;;
10383;SDS011;5238;43.508;4.980;2023-07-24T08:06:11;6.55;;;4.90;;
10383;SDS011;5238;43.508;4.980;2023-07-24T08:08:38;5.45;;;4.53;;
10383;SDS011;5238;43.508;4.980;2023-07-24T08:11:05;7.13;;;5.15;;
10383;SDS011;5238;43.508;4.980;2023-07-24T08:13:32;6.25;;;5.30;;
10383;SDS011;5238;43.508;4.980;2023-07-24T08:16:00;8.15;;;4.90;;
10383;SDS011;5238;43.508;4.980;2023-07-24T08:18:29;6.13;;;5.15;;
10383;SDS011;5238;43.508;4.980;2023-07-24T08:20:56;8.00;;;4.80;;
10383;SDS011;5238;43.508;4.980;2023-07-24T08:23:23;7.13;;;4.72;;
10383;SDS011;5238;43.508;4.980;2023-07-24T08:25:50;7.60;;;4.90;;
10383;SDS011;5238;43.508;4.980;2023-07-24T08:28:18;7.30;;;5.10;;
10383;SDS011;5238;43.508;4.980;2023-07-24T08:30:45;7.25;;;4.93;;
10383;SDS011;5238;43.508;4.980;2023-07-24T08:33:12;6.20;;;5.47;;
10383;SDS011;5238;43.508;4.980;2023-07-24T08:35:41;6.32;;;4.60;;
10383;SDS011;5238;43.508;4.980;2023-07-24T08:38:08;7.65;;;5.13;;
10383;SDS011;5238;43.508;4.980;2023-07-24T08:40:35;11.77;;;5.28;;
10383;SDS011;5238;43.508;4.980;2023-07-24T08:43:02;8.80;;;5.22;;
10383;SDS011;5238;43.508;4.980;2023-07-24T08:45:29;5.93;;;5.28;;
10383;SDS011;5238;43.508;4.980;2023-07-24T08:47:57;6.80;;;5.50;;
10383;SDS011;5238;43.508;4.980;2023-07-24T08:50:25;5.22;;;4.72;;
10383;SDS011;5238;43.508;4.980;2023-07-24T08:52:54;9.07;;;5.35;;
10383;SDS011;5238;43.508;4.980;2023-07-24T08:55:23;8.75;;;5.25;;
10383;SDS011;5238;43.508;4.980;2023-07-24T08:57:52;6.43;;;5.68;;
10383;SDS011;5238;43.508;4.980;2023-07-24T09:00:19;7.15;;;5.20;;
10383;SDS011;5238;43.508;4.980;2023-07-24T09:02:45;7.35;;;5.32;;
10383;SDS011;5238;43.508;4.980;2023-07-24T09:05:12;9.18;;;5.25;;
10383;SDS011;5238;43.508;4.980;2023-07-24T09:07:40;6.00;;;5.43;;
10383;SDS011;5238;43.508;4.980;2023-07-24T09:10:09;9.52;;;5.88;;
10383;SDS011;5238;43.508;4.980;2023-07-24T09:12:37;7.88;;;5.88;;
10383;SDS011;5238;43.508;4.980;2023-07-24T09:15:04;7.47;;;5.40;;
10383;SDS011;5238;43.508;4.980;2023-07-24T09:17:32;9.63;;;5.28;;
10383;SDS011;5238;43.508;4.980;2023-07-24T09:19:58;6.78;;;5.93;;
10383;SDS011;5238;43.508;4.980;2023-07-24T09:22:26;8.20;;;5.90;;
10383;SDS011;5238;43.508;4.980;2023-07-24T09:24:54;6.35;;;5.72;;
10383;SDS011;5238;43.508;4.980;2023-07-24T09:27:26;7.50;;;6.20;;
10383;SDS011;5238;43.508;4.980;2023-07-24T09:29:54;8.82;;;5.63;;
10383;SDS011;5238;43.508;4.980;2023-07-24T09:32:22;7.93;;;5.50;;
10383;SDS011;5238;43.508;4.980;2023-07-24T09:34:50;8.25;;;5.38;;
10383;SDS011;5238;43.508;4.980;2023-07-24T09:37:23;13.93;;;6.18;;
10383;SDS011;5238;43.508;4.980;2023-07-24T09:39:51;6.80;;;5.95;;
10383;SDS011;5238;43.508;4.980;2023-07-24T09:42:18;6.80;;;5.70;;
10383;SDS011;5238;43.508;4.980;2023-07-24T09:44:54;6.57;;;5.30;;
10383;SDS011;5238;43.508;4.980;2023-07-24T09:47:21;30.70;;;9.93;;
10383;SDS011;5238;43.508;4.980;2023-07-24T09:49:48;11.32;;;5.65;;
10383;SDS011;5238;43.508;4.980;2023-07-24T09:52:16;7.20;;;5.55;;
10383;SDS011;5238;43.508;4.980;2023-07-24T09:54:47;6.32;;;5.72;;
10383;SDS011;5238;43.508;4.980;2023-07-24T09:57:21;7.35;;;6.15;;
10383;SDS011;5238;43.508;4.980;2023-07-24T09:59:49;6.93;;;5.25;;
10383;SDS011;5238;43.508;4.980;2023-07-24T10:02:19;11.18;;;6.07;;
10383;SDS011;5238;43.508;4.980;2023-07-24T10:04:47;8.38;;;5.63;;
10383;SDS011;5238;43.508;4.980;2023-07-24T10:07:15;5.93;;;5.25;;
10383;SDS011;5238;43.508;4.980;2023-07-24T10:09:42;8.80;;;6.07;;
10383;SDS011;5238;43.508;4.980;2023-07-24T10:12:10;8.98;;;5.60;;
10383;SDS011;5238;43.508;4.980;2023-07-24T10:14:37;7.07;;;5.78;;
10383;SDS011;5238;43.508;4.980;2023-07-24T10:17:04;8.40;;;5.82;;
10383;SDS011;5238;43.508;4.980;2023-07-24T10:19:40;8.73;;;6.20;;
10383;SDS011;5238;43.508;4.980;2023-07-24T10:22:08;7.25;;;6.28;;
10383;SDS011;5238;43.508;4.980;2023-07-24T10:24:36;8.85;;;5.80;;
10383;SDS011;5238;43.508;4.980;2023-07-24T10:27:03;11.35;;;5.90;;
10383;SDS011;5238;43.508;4.980;2023-07-24T10:29:34;8.80;;;5.38;;
10383;SDS011;5238;43.508;4.980;2023-07-24T10:32:02;7.72;;;6.25;;
10383;SDS011;5238;43.508;4.980;2023-07-24T10:34:35;8.38;;;6.35;;
10383;SDS011;5238;43.508;4.980;2023-07-24T10:37:06;8.27;;;5.50;;
10383;SDS011;5238;43.508;4.980;2023-07-24T10:39:37;7.45;;;5.88;;
10383;SDS011;5238;43.508;4.980;2023-07-24T10:42:06;9.43;;;6.28;;
10383;SDS011;5238;43.508;4.980;2023-07-24T10:44:34;8.75;;;5.75;;
10383;SDS011;5238;43.508;4.980;2023-07-24T10:47:01;9.77;;;5.68;;
10383;SDS011;5238;43.508;4.980;2023-07-24T10:49:28;7.78;;;5.40;;
10383;SDS011;5238;43.508;4.980;2023-07-24T10:51:55;7.68;;;5.78;;
10383;SDS011;5238;43.508;4.980;2023-07-24T10:54:24;9.43;;;6.15;;
10383;SDS011;5238;43.508;4.980;2023-07-24T10:56:57;6.47;;;5.45;;
10383;SDS011;5238;43.508;4.980;2023-07-24T10:59:35;8.95;;;5.75;;
10383;SDS011;5238;43.508;4.980;2023-07-24T11:02:03;9.38;;;5.55;;
10383;SDS011;5238;43.508;4.980;2023-07-24T11:04:30;7.65;;;5.53;;
10383;SDS011;5238;43.508;4.980;2023-07-24T11:06:58;9.63;;;5.88;;
10383;SDS011;5238;43.508;4.980;2023-07-24T11:09:35;10.88;;;5.57;;
10383;SDS011;5238;43.508;4.980;2023-07-24T11:12:09;8.45;;;5.72;;
10383;SDS011;5238;43.508;4.980;2023-07-24T11:14:45;10.10;;;5.65;;
10383;SDS011;5238;43.508;4.980;2023-07-24T11:17:13;15.60;;;6.28;;
10383;SDS011;5238;43.508;4.980;2023-07-24T11:19:40;11.65;;;5.60;;
10383;SDS011;5238;43.508;4.980;2023-07-24T11:22:07;11.35;;;5.65;;
10383;SDS011;5238;43.508;4.980;2023-07-24T11:24:42;11.15;;;5.50;;
10383;SDS011;5238;43.508;4.980;2023-07-24T11:27:10;8.02;;;5.57;;
10383;SDS011;5238;43.508;4.980;2023-07-24T11:29:41;9.45;;;6.05;;
10383;SDS011;5238;43.508;4.980;2023-07-24T11:32:08;10.52;;;5.97;;
10383;SDS011;5238;43.508;4.980;2023-07-24T11:34:35;9.63;;;6.00;;
10383;SDS011;5238;43.508;4.980;2023-07-24T11:37:02;9.90;;;5.80;;
10383;SDS011;5238;43.508;4.980;2023-07-24T11:39:30;9.93;;;5.53;;
10383;SDS011;5238;43.508;4.980;2023-07-24T11:42:00;15.73;;;6.13;;
10383;SDS011;5238;43.508;4.980;2023-07-24T11:44:28;9.80;;;5.53;;
10383;SDS011;5238;43.508;4.980;2023-07-24T11:47:01;7.53;;;5.53;;
10383;SDS011;5238;43.508;4.980;2023-07-24T11:49:29;7.78;;;5.47;;
10383;SDS011;5238;43.508;4.980;2023-07-24T11:52:00;9.32;;;6.30;;
10383;SDS011;5238;43.508;4.980;2023-07-24T11:54:29;9.48;;;7.75;;
10383;SDS011;5238;43.508;4.980;2023-07-24T11:56:56;10.55;;;5.90;;
10383;SDS011;5238;43.508;4.980;2023-07-24T11:59:24;11.40;;;6.43;;
10383;SDS011;5238;43.508;4.980;2023-07-24T12:01:52;8.40;;;6.55;;
10383;SDS011;5238;43.508;4.980;2023-07-24T12:04:19;10.43;;;6.25;;
10383;SDS011;5238;43.508;4.980;2023-07-24T12:06:46;7.70;;;6.10;;
10383;SDS011;5238;43.508;4.980;2023-07-24T12:09:13;8.98;;;6.43;;
10383;SDS011;5238;43.508;4.980;2023-07-24T12:11:40;11.70;;;6.53;;
10383;SDS011;5238;43.508;4.980;2023-07-24T12:14:08;12.80;;;6.35;;
10383;SDS011;5238;43.508;4.980;2023-07-24T12:16:36;5.95;;;5.22;;
10383;SDS011;5238;43.508;4.980;2023-07-24T12:19:04;10.15;;;6.90;;
10383;SDS011;5238;43.508;4.980;2023-07-24T12:21:31;9.38;;;6.20;;
10383;SDS011;5238;43.508;4.980;2023-07-24T12:23:58;8.38;;;6.03;;
10383;SDS011;5238;43.508;4.980;2023-07-24T12:26:25;10.05;;;5.95;;
10383;SDS011;5238;43.508;4.980;2023-07-24T12:28:52;9.65;;;6.38;;
10383;SDS011;5238;43.508;4.980;2023-07-24T12:31:20;11.27;;;7.65;;
10383;SDS011;5238;43.508;4.980;2023-07-24T12:33:48;12.95;;;6.35;;
10383;SDS011;5238;43.508;4.980;2023-07-24T12:36:15;10.75;;;5.82;;
10383;SDS011;5238;43.508;4.980;2023-07-24T12:38:42;10.15;;;6.22;;
10383;SDS011;5238;43.508;4.980;2023-07-24T12:41:09;11.98;;;6.25;;
10383;SDS011;5238;43.508;4.980;2023-07-24T12:43:36;11.63;;;6.38;;
10383;SDS011;5238;43.508;4.980;2023-07-24T12:46:03;10.98;;;6.15;;
10383;SDS011;5238;43.508;4.980;2023-07-24T12:48:30;10.40;;;6.72;;
10383;SDS011;5238;43.508;4.980;2023-07-24T12:50:58;10.02;;;6.78;;
10383;SDS011;5238;43.508;4.980;2023-07-24T12:53:26;10.38;;;6.57;;
10383;SDS011;5238;43.508;4.980;2023-07-24T12:55:53;8.90;;;7.10;;
10383;SDS011;5238;43.508;4.980;2023-07-24T12:58:20;12.30;;;7.05;;
10383;SDS011;5238;43.508;4.980;2023-07-24T13:00:47;12.10;;;6.85;;
10383;SDS011;5238;43.508;4.980;2023-07-24T13:03:13;10.82;;;6.38;;
10383;SDS011;5238;43.508;4.980;2023-07-24T13:05:41;9.30;;;6.47;;
10383;SDS011;5238;43.508;4.980;2023-07-24T13:08:09;12.13;;;6.65;;
10383;SDS011;5238;43.508;4.980;2023-07-24T13:10:36;12.75;;;6.65;;
10383;SDS011;5238;43.508;4.980;2023-07-24T13:13:03;10.45;;;6.28;;
10383;SDS011;5238;43.508;4.980;2023-07-24T13:15:30;9.40;;;6.47;;
10383;SDS011;5238;43.508;4.980;2023-07-24T13:17:57;10.65;;;6.82;;
10383;SDS011;5238;43.508;4.980;2023-07-24T13:20:24;9.63;;;6.32;;
10383;SDS011;5238;43.508;4.980;2023-07-24T13:22:51;10.95;;;6.32;;
10383;SDS011;5238;43.508;4.980;2023-07-24T13:25:19;9.60;;;6.35;;
10383;SDS011;5238;43.508;4.980;2023-07-24T13:27:46;13.50;;;6.60;;
10383;SDS011;5238;43.508;4.980;2023-07-24T13:30:13;10.60;;;6.30;;
10383;SDS011;5238;43.508;4.980;2023-07-24T13:32:40;11.77;;;6.80;;
10383;SDS011;5238;43.508;4.980;2023-07-24T13:35:08;12.45;;;6.00;;
10383;SDS011;5238;43.508;4.980;2023-07-24T13:37:35;12.00;;;6.20;;
10383;SDS011;5238;43.508;4.980;2023-07-24T13:40:01;12.73;;;6.45;;
10383;SDS011;5238;43.508;4.980;2023-07-24T13:42:30;10.77;;;7.15;;
10383;SDS011;5238;43.508;4.980;2023-07-24T13:44:57;11.40;;;6.47;;
10383;SDS011;5238;43.508;4.980;2023-07-24T13:47:24;10.95;;;6.53;;
10383;SDS011;5238;43.508;4.980;2023-07-24T13:49:51;15.95;;;7.45;;
10383;SDS011;5238;43.508;4.980;2023-07-24T13:52:18;9.35;;;5.80;;
10383;SDS011;5238;43.508;4.980;2023-07-24T13:54:44;7.20;;;6.10;;
10383;SDS011;5238;43.508;4.980;2023-07-24T13:57:12;12.63;;;6.60;;
10383;SDS011;5238;43.508;4.980;2023-07-24T13:59:40;10.35;;;6.03;;
10383;SDS011;5238;43.508;4.980;2023-07-24T14:02:07;10.48;;;6.10;;
10383;SDS011;5238;43.508;4.980;2023-07-24T14:04:34;11.63;;;6.20;;
10383;SDS011;5238;43.508;4.980;2023-07-24T14:07:01;11.43;;;6.18;;
10383;SDS011;5238;43.508;4.980;2023-07-24T14:09:28;11.63;;;6.10;;
10383;SDS011;5238;43.508;4.980;2023-07-24T14:11:56;11.88;;;6.40;;
10383;SDS011;5238;43.508;4.980;2023-07-24T14:14:23;10.93;;;5.97;;
10383;SDS011;5238;43.508;4.980;2023-07-24T14:16:51;10.02;;;5.63;;
10383;SDS011;5238;43.508;4.980;2023-07-24T14:19:18;9.50;;;7.00;;
10383;SDS011;5238;43.508;4.980;2023-07-24T14:21:45;9.50;;;6.38;;
10383;SDS011;5238;43.508;4.980;2023-07-24T14:24:12;11.05;;;5.80;;
10383;SDS011;5238;43.508;4.980;2023-07-24T14:26:39;10.43;;;6.05;;
10383;SDS011;5238;43.508;4.980;2023-07-24T14:29:06;10.35;;;5.80;;
10383;SDS011;5238;43.508;4.980;2023-07-24T14:31:33;11.23;;;6.03;;
10383;SDS011;5238;43.508;4.980;2023-07-24T14:34:02;9.35;;;6.00;;
10383;SDS011;5238;43.508;4.980;2023-07-24T14:36:28;10.80;;;6.18;;
10383;SDS011;5238;43.508;4.980;2023-07-24T14:38:58;12.10;;;5.90;;
10383;SDS011;5238;43.508;4.980;2023-07-24T14:41:25;11.00;;;6.05;;
10383;SDS011;5238;43.508;4.980;2023-07-24T14:43:52;8.93;;;5.97;;
10383;SDS011;5238;43.508;4.980;2023-07-24T14:46:19;12.23;;;6.40;;
10383;SDS011;5238;43.508;4.980;2023-07-24T14:48:46;10.10;;;6.22;;
10383;SDS011;5238;43.508;4.980;2023-07-24T14:51:15;12.85;;;6.30;;
10383;SDS011;5238;43.508;4.980;2023-07-24T14:53:42;12.02;;;6.38;;
10383;SDS011;5238;43.508;4.980;2023-07-24T14:56:08;15.05;;;6.70;;
10383;SDS011;5238;43.508;4.980;2023-07-24T14:58:35;12.00;;;7.00;;
10383;SDS011;5238;43.508;4.980;2023-07-24T15:01:02;12.80;;;6.57;;